AAL2031 KSTL-KLAX
Flight info
| Callsign | AAL2031 |
|---|---|
| Flight time | 3h 41m |
| Altitude | 32000 |
| Route | BRAKK5 HLV SLN PUB PEEWE Q98 HAKMN ANJLL4 |
| Aircraft | B738/M-SDE2E3FGHIRWXY/LB1 |
Departure
| Time | 2026-04-24 23:33 |
|---|---|
| Airport | St. Louis Lambert International Airport (KSTL) |
Arrival
| Time | 2026-04-25 03:15 |
|---|---|
| Airport | Los Angeles International Airport (KLAX) |
| Time | Latitude | Longitude | Altitude | Speed | Heading |
|---|---|---|---|---|---|
| 2026-04-24 22:38 | 38.74534 | -90.36784 | 539 ft | 0 kts | 201° |
| 2026-04-24 23:24 | 38.74539 | -90.36782 | 538 ft | 4 kts | 201° |
| 2026-04-24 23:24 | 38.74565 | -90.36769 | 537 ft | 4 kts | 198° |
| 2026-04-24 23:24 | 38.74590 | -90.36760 | 536 ft | 4 kts | 184° |
| 2026-04-24 23:24 | 38.74613 | -90.36765 | 536 ft | 4 kts | 131° |
| 2026-04-24 23:25 | 38.74616 | -90.36769 | 536 ft | 1 kts | 122° |
| 2026-04-24 23:28 | 38.74603 | -90.36743 | 536 ft | 7 kts | 122° |
| 2026-04-24 23:28 | 38.74561 | -90.36659 | 536 ft | 15 kts | 122° |
| 2026-04-24 23:29 | 38.74491 | -90.36515 | 538 ft | 21 kts | 123° |
| 2026-04-24 23:29 | 38.74414 | -90.36359 | 542 ft | 20 kts | 122° |
| 2026-04-24 23:29 | 38.74339 | -90.36208 | 546 ft | 20 kts | 122° |
| 2026-04-24 23:29 | 38.74267 | -90.36062 | 551 ft | 19 kts | 122° |
| 2026-04-24 23:30 | 38.74192 | -90.35910 | 558 ft | 22 kts | 122° |
| 2026-04-24 23:30 | 38.74107 | -90.35740 | 555 ft | 23 kts | 121° |
| 2026-04-24 23:30 | 38.74020 | -90.35568 | 560 ft | 20 kts | 122° |
| 2026-04-24 23:30 | 38.73947 | -90.35420 | 564 ft | 20 kts | 121° |
| 2026-04-24 23:31 | 38.73874 | -90.35271 | 566 ft | 20 kts | 122° |
| 2026-04-24 23:31 | 38.73801 | -90.35124 | 570 ft | 19 kts | 122° |
| 2026-04-24 23:31 | 38.73730 | -90.34981 | 574 ft | 19 kts | 122° |
| 2026-04-24 23:31 | 38.73661 | -90.34842 | 577 ft | 18 kts | 121° |
| 2026-04-24 23:32 | 38.73685 | -90.34741 | 575 ft | 14 kts | 33° |
| 2026-04-24 23:32 | 38.73781 | -90.34686 | 572 ft | 16 kts | 347° |
| 2026-04-24 23:32 | 38.73862 | -90.34818 | 568 ft | 27 kts | 302° |
| 2026-04-24 23:32 | 38.74085 | -90.35271 | 566 ft | 93 kts | 302° |
| 2026-04-24 23:33 | 38.74543 | -90.36196 | 543 ft | 151 kts | 302° |
| 2026-04-24 23:33 | 38.75190 | -90.37507 | 632 ft | 190 kts | 302° |
| 2026-04-24 23:33 | 38.75859 | -90.38898 | 1526 ft | 177 kts | 300° |
| 2026-04-24 23:33 | 38.76473 | -90.40266 | 2202 ft | 185 kts | 301° |
| 2026-04-24 23:34 | 38.77159 | -90.41789 | 2483 ft | 205 kts | 301° |
| 2026-04-24 23:34 | 38.77936 | -90.43449 | 2508 ft | 230 kts | 302° |
| 2026-04-24 23:34 | 38.78744 | -90.45202 | 2422 ft | 235 kts | 301° |
| 2026-04-24 23:34 | 38.79439 | -90.47194 | 2507 ft | 252 kts | 290° |
| 2026-04-24 23:35 | 38.80000 | -90.49332 | 2504 ft | 254 kts | 289° |
| 2026-04-24 23:35 | 38.80548 | -90.51502 | 2504 ft | 256 kts | 289° |
| 2026-04-24 23:35 | 38.81095 | -90.53682 | 2527 ft | 257 kts | 289° |
| 2026-04-24 23:35 | 38.81648 | -90.55880 | 3031 ft | 259 kts | 289° |
| 2026-04-24 23:36 | 38.82194 | -90.58049 | 3862 ft | 260 kts | 289° |
| 2026-04-24 23:36 | 38.82753 | -90.60262 | 4685 ft | 260 kts | 289° |
| 2026-04-24 23:36 | 38.83314 | -90.62480 | 5430 ft | 264 kts | 289° |
| 2026-04-24 23:36 | 38.83885 | -90.64737 | 6136 ft | 268 kts | 289° |
| 2026-04-24 23:37 | 38.84463 | -90.67022 | 6853 ft | 270 kts | 289° |
| 2026-04-24 23:37 | 38.85044 | -90.69321 | 7558 ft | 272 kts | 289° |
| 2026-04-24 23:37 | 38.86224 | -90.73989 | 8967 ft | 277 kts | 289° |
| 2026-04-24 23:38 | 38.86813 | -90.76325 | 9671 ft | 280 kts | 289° |
| 2026-04-24 23:38 | 38.87414 | -90.78708 | 10300 ft | 284 kts | 288° |
| 2026-04-24 23:38 | 38.88043 | -90.81201 | 10497 ft | 305 kts | 288° |
| 2026-04-24 23:38 | 38.88716 | -90.83876 | 10659 ft | 325 kts | 288° |
| 2026-04-24 23:39 | 38.89431 | -90.86720 | 10819 ft | 344 kts | 288° |
| 2026-04-24 23:39 | 38.90184 | -90.89722 | 10964 ft | 362 kts | 288° |
| 2026-04-24 23:39 | 38.90970 | -90.92854 | 11249 ft | 374 kts | 288° |
| 2026-04-24 23:39 | 38.91773 | -90.96060 | 11789 ft | 378 kts | 287° |
| 2026-04-24 23:40 | 38.92578 | -90.99278 | 12404 ft | 379 kts | 287° |
| 2026-04-24 23:40 | 38.93389 | -91.02522 | 13005 ft | 381 kts | 287° |
| 2026-04-24 23:40 | 38.94200 | -91.05772 | 13559 ft | 384 kts | 287° |
| 2026-04-24 23:40 | 38.95019 | -91.09057 | 14052 ft | 388 kts | 287° |
| 2026-04-24 23:41 | 38.95846 | -91.12378 | 14493 ft | 392 kts | 287° |
| 2026-04-24 23:41 | 38.96679 | -91.15730 | 14939 ft | 396 kts | 287° |
| 2026-04-24 23:41 | 38.97399 | -91.19172 | 15335 ft | 401 kts | 281° |
| 2026-04-24 23:41 | 38.97915 | -91.22657 | 15798 ft | 404 kts | 279° |
| 2026-04-24 23:42 | 38.98402 | -91.26223 | 16279 ft | 406 kts | 279° |
| 2026-04-24 23:42 | 38.98920 | -91.29809 | 16732 ft | 409 kts | 280° |
| 2026-04-24 23:42 | 38.99469 | -91.33420 | 17152 ft | 413 kts | 281° |
| 2026-04-24 23:42 | 39.00033 | -91.37062 | 17649 ft | 415 kts | 281° |
| 2026-04-24 23:43 | 39.00594 | -91.40708 | 18120 ft | 417 kts | 280° |
| 2026-04-24 23:43 | 39.01156 | -91.44396 | 18447 ft | 422 kts | 280° |
| 2026-04-24 23:43 | 39.01720 | -91.48106 | 18888 ft | 423 kts | 280° |
| 2026-04-24 23:43 | 39.02282 | -91.51811 | 19404 ft | 421 kts | 280° |
| 2026-04-24 23:44 | 39.02840 | -91.55502 | 19974 ft | 419 kts | 280° |
| 2026-04-24 23:44 | 39.03388 | -91.59135 | 20515 ft | 418 kts | 279° |
| 2026-04-24 23:44 | 39.03940 | -91.62797 | 20984 ft | 418 kts | 279° |
| 2026-04-24 23:44 | 39.04492 | -91.66470 | 21416 ft | 418 kts | 279° |
| 2026-04-24 23:45 | 39.05043 | -91.70148 | 21846 ft | 419 kts | 279° |
| 2026-04-24 23:45 | 39.05595 | -91.73832 | 22265 ft | 419 kts | 279° |
| 2026-04-24 23:45 | 39.06146 | -91.77522 | 22683 ft | 419 kts | 279° |
| 2026-04-24 23:45 | 39.06694 | -91.81204 | 23091 ft | 419 kts | 279° |
| 2026-04-24 23:46 | 39.07243 | -91.84895 | 23487 ft | 420 kts | 279° |
| 2026-04-24 23:46 | 39.07790 | -91.88587 | 23725 ft | 421 kts | 279° |
| 2026-04-24 23:46 | 39.08339 | -91.92299 | 23975 ft | 423 kts | 279° |
| 2026-04-24 23:46 | 39.08890 | -91.96031 | 24198 ft | 425 kts | 278° |
| 2026-04-24 23:47 | 39.09442 | -91.99779 | 24457 ft | 427 kts | 278° |
| 2026-04-24 23:47 | 39.09994 | -92.03532 | 24734 ft | 427 kts | 278° |
| 2026-04-24 23:47 | 39.10541 | -92.07257 | 24998 ft | 429 kts | 278° |
| 2026-04-24 23:47 | 39.11097 | -92.11061 | 25118 ft | 434 kts | 278° |
| 2026-04-24 23:48 | 39.11493 | -92.14908 | 25320 ft | 434 kts | 270° |
| 2026-04-24 23:48 | 39.11503 | -92.18790 | 25639 ft | 432 kts | 267° |
| 2026-04-24 23:48 | 39.11422 | -92.22652 | 25970 ft | 431 kts | 266° |
| 2026-04-24 23:48 | 39.11319 | -92.26505 | 26346 ft | 429 kts | 266° |
| 2026-04-24 23:49 | 39.11222 | -92.30326 | 26784 ft | 425 kts | 266° |
| 2026-04-24 23:49 | 39.11140 | -92.34117 | 27247 ft | 422 kts | 266° |
| 2026-04-24 23:49 | 39.11071 | -92.37880 | 27671 ft | 419 kts | 266° |
| 2026-04-24 23:49 | 39.11010 | -92.41627 | 28028 ft | 418 kts | 265° |
| 2026-04-24 23:50 | 39.10955 | -92.45368 | 28393 ft | 417 kts | 265° |
| 2026-04-24 23:50 | 39.10902 | -92.49084 | 28811 ft | 414 kts | 265° |
| 2026-04-24 23:50 | 39.10851 | -92.52783 | 29237 ft | 411 kts | 265° |
| 2026-04-24 23:50 | 39.10799 | -92.56452 | 29621 ft | 409 kts | 265° |
| 2026-04-24 23:51 | 39.10746 | -92.60070 | 29979 ft | 408 kts | 265° |
| 2026-04-24 23:51 | 39.10692 | -92.63712 | 30283 ft | 406 kts | 264° |
| 2026-04-24 23:51 | 39.10636 | -92.67357 | 30510 ft | 407 kts | 265° |
| 2026-04-24 23:51 | 39.10578 | -92.71016 | 30698 ft | 408 kts | 264° |
| 2026-04-24 23:52 | 39.10520 | -92.74671 | 30927 ft | 409 kts | 264° |
| 2026-04-24 23:52 | 39.10460 | -92.78331 | 31204 ft | 407 kts | 264° |
| 2026-04-24 23:52 | 39.10401 | -92.81968 | 31518 ft | 405 kts | 264° |
| 2026-04-24 23:52 | 39.10340 | -92.85591 | 31797 ft | 404 kts | 264° |
| 2026-04-24 23:53 | 39.10213 | -92.92864 | 31904 ft | 408 kts | 264° |
| 2026-04-24 23:53 | 39.10082 | -93.00134 | 31908 ft | 405 kts | 264° |
| 2026-04-24 23:54 | 39.09950 | -93.07308 | 31927 ft | 402 kts | 264° |
| 2026-04-24 23:54 | 39.09812 | -93.14500 | 31917 ft | 401 kts | 264° |
| 2026-04-24 23:55 | 39.09670 | -93.21668 | 31916 ft | 400 kts | 264° |
| 2026-04-24 23:55 | 39.09524 | -93.28814 | 31915 ft | 400 kts | 264° |
| 2026-04-24 23:56 | 39.09372 | -93.35980 | 31913 ft | 401 kts | 264° |
| 2026-04-24 23:56 | 39.09217 | -93.43119 | 31908 ft | 402 kts | 264° |
| 2026-04-24 23:57 | 39.09057 | -93.50338 | 31903 ft | 404 kts | 264° |
| 2026-04-24 23:57 | 39.08891 | -93.57581 | 31898 ft | 405 kts | 264° |
| 2026-04-24 23:58 | 39.08720 | -93.64844 | 31892 ft | 406 kts | 264° |
| 2026-04-24 23:58 | 39.08545 | -93.72123 | 31889 ft | 407 kts | 264° |
| 2026-04-24 23:59 | 39.08365 | -93.79408 | 31893 ft | 407 kts | 264° |
| 2026-04-24 23:59 | 39.08182 | -93.86643 | 31898 ft | 407 kts | 264° |
| 2026-04-25 00:00 | 39.07992 | -93.93916 | 31892 ft | 406 kts | 264° |
| 2026-04-25 00:00 | 39.07800 | -94.01163 | 31894 ft | 404 kts | 264° |
| 2026-04-25 00:01 | 39.07604 | -94.08394 | 31892 ft | 403 kts | 264° |
| 2026-04-25 00:01 | 39.07403 | -94.15599 | 31891 ft | 402 kts | 264° |
| 2026-04-25 00:02 | 39.07198 | -94.22785 | 31918 ft | 402 kts | 264° |
| 2026-04-25 00:02 | 39.06990 | -94.29939 | 31914 ft | 402 kts | 264° |
| 2026-04-25 00:03 | 39.06776 | -94.37134 | 31912 ft | 402 kts | 264° |
| 2026-04-25 00:03 | 39.06558 | -94.44329 | 31915 ft | 402 kts | 264° |
| 2026-04-25 00:04 | 39.06335 | -94.51532 | 31901 ft | 403 kts | 264° |
| 2026-04-25 00:04 | 39.06108 | -94.58747 | 31922 ft | 403 kts | 265° |
| 2026-04-25 00:05 | 39.05875 | -94.65969 | 31908 ft | 404 kts | 265° |
| 2026-04-25 00:05 | 39.05640 | -94.73154 | 31894 ft | 405 kts | 265° |
| 2026-04-25 00:06 | 39.05398 | -94.80396 | 31894 ft | 405 kts | 264° |
| 2026-04-25 00:06 | 39.05152 | -94.87644 | 31894 ft | 405 kts | 264° |
| 2026-04-25 00:07 | 39.04901 | -94.94893 | 31893 ft | 405 kts | 264° |
| 2026-04-25 00:07 | 39.04645 | -95.02142 | 31903 ft | 406 kts | 265° |
| 2026-04-25 00:08 | 39.04385 | -95.09389 | 31897 ft | 406 kts | 265° |
| 2026-04-25 00:08 | 39.04120 | -95.16647 | 31896 ft | 406 kts | 265° |
| 2026-04-25 00:09 | 39.03851 | -95.23895 | 31901 ft | 405 kts | 265° |
| 2026-04-25 00:09 | 39.03580 | -95.31096 | 31894 ft | 405 kts | 265° |
| 2026-04-25 00:10 | 39.03302 | -95.38335 | 31901 ft | 405 kts | 265° |
| 2026-04-25 00:10 | 39.03019 | -95.45579 | 31897 ft | 406 kts | 265° |
| 2026-04-25 00:11 | 39.02780 | -95.51647 | 31893 ft | 406 kts | 265° |
| 2026-04-25 00:11 | 39.02441 | -95.60075 | 31898 ft | 406 kts | 265° |
| 2026-04-25 00:12 | 39.02145 | -95.67322 | 31898 ft | 406 kts | 265° |
| 2026-04-25 00:12 | 39.01895 | -95.73353 | 31906 ft | 406 kts | 265° |
| 2026-04-25 00:13 | 39.01590 | -95.80608 | 31890 ft | 406 kts | 265° |
| 2026-04-25 00:13 | 39.01281 | -95.87873 | 31900 ft | 407 kts | 265° |
| 2026-04-25 00:14 | 39.00967 | -95.95140 | 31896 ft | 407 kts | 265° |
| 2026-04-25 00:14 | 39.00647 | -96.02420 | 31883 ft | 408 kts | 265° |
| 2026-04-25 00:15 | 39.00323 | -96.09702 | 31904 ft | 408 kts | 266° |
| 2026-04-25 00:15 | 38.99994 | -96.17012 | 31899 ft | 410 kts | 266° |
| 2026-04-25 00:16 | 38.99659 | -96.24343 | 31894 ft | 411 kts | 266° |
| 2026-04-25 00:16 | 38.99320 | -96.31653 | 31879 ft | 412 kts | 266° |
| 2026-04-25 00:17 | 38.98973 | -96.39017 | 31875 ft | 413 kts | 266° |
| 2026-04-25 00:17 | 38.98622 | -96.46389 | 31885 ft | 413 kts | 266° |
| 2026-04-25 00:18 | 38.98266 | -96.53771 | 31890 ft | 413 kts | 266° |
| 2026-04-25 00:18 | 38.97905 | -96.61150 | 31874 ft | 413 kts | 266° |
| 2026-04-25 00:19 | 38.97542 | -96.68479 | 31868 ft | 413 kts | 266° |
| 2026-04-25 00:19 | 38.97172 | -96.75848 | 31874 ft | 413 kts | 266° |
| 2026-04-25 00:20 | 38.96799 | -96.83202 | 31870 ft | 412 kts | 266° |
| 2026-04-25 00:20 | 38.96421 | -96.90553 | 31870 ft | 413 kts | 266° |
| 2026-04-25 00:21 | 38.96037 | -96.97923 | 31869 ft | 413 kts | 266° |
| 2026-04-25 00:21 | 38.95649 | -97.05291 | 31865 ft | 413 kts | 266° |
| 2026-04-25 00:22 | 38.95256 | -97.12664 | 31867 ft | 414 kts | 266° |
| 2026-04-25 00:22 | 38.94858 | -97.20038 | 31860 ft | 414 kts | 266° |
| 2026-04-25 00:23 | 38.94455 | -97.27419 | 31861 ft | 415 kts | 266° |
| 2026-04-25 00:23 | 38.94046 | -97.34816 | 31862 ft | 415 kts | 266° |
| 2026-04-25 00:24 | 38.93636 | -97.42167 | 31853 ft | 415 kts | 266° |
| 2026-04-25 00:24 | 38.93218 | -97.49571 | 31857 ft | 415 kts | 266° |
| 2026-04-25 00:25 | 38.92796 | -97.56970 | 31871 ft | 415 kts | 266° |
| 2026-04-25 00:25 | 38.92364 | -97.64376 | 31873 ft | 415 kts | 266° |
| 2026-04-25 00:26 | 38.91895 | -97.71775 | 31867 ft | 415 kts | 266° |
| 2026-04-25 00:26 | 38.91418 | -97.79107 | 31865 ft | 414 kts | 266° |
| 2026-04-25 00:27 | 38.90936 | -97.86480 | 31866 ft | 413 kts | 266° |
| 2026-04-25 00:27 | 38.90454 | -97.93837 | 31860 ft | 413 kts | 266° |
| 2026-04-25 00:28 | 38.89968 | -98.01184 | 31858 ft | 412 kts | 266° |
| 2026-04-25 00:28 | 38.89481 | -98.08480 | 31852 ft | 412 kts | 266° |
| 2026-04-25 00:29 | 38.88988 | -98.15804 | 31852 ft | 412 kts | 266° |
| 2026-04-25 00:29 | 38.88491 | -98.23119 | 31843 ft | 411 kts | 266° |
| 2026-04-25 00:30 | 38.87989 | -98.30436 | 31837 ft | 411 kts | 266° |
| 2026-04-25 00:30 | 38.87486 | -98.37700 | 31842 ft | 411 kts | 266° |
| 2026-04-25 00:31 | 38.86976 | -98.45003 | 31839 ft | 411 kts | 266° |
| 2026-04-25 00:31 | 38.86461 | -98.52308 | 31846 ft | 410 kts | 266° |
| 2026-04-25 00:32 | 38.85942 | -98.59602 | 31844 ft | 410 kts | 266° |
| 2026-04-25 00:32 | 38.85418 | -98.66894 | 31845 ft | 410 kts | 266° |
| 2026-04-25 00:33 | 38.84890 | -98.74191 | 31849 ft | 410 kts | 266° |
| 2026-04-25 00:33 | 38.84362 | -98.81422 | 31843 ft | 409 kts | 266° |
| 2026-04-25 00:34 | 38.83826 | -98.88692 | 31836 ft | 408 kts | 266° |
| 2026-04-25 00:34 | 38.83289 | -98.95929 | 31845 ft | 407 kts | 266° |
| 2026-04-25 00:35 | 38.82747 | -99.03158 | 31833 ft | 406 kts | 266° |
| 2026-04-25 00:35 | 38.82202 | -99.10369 | 31839 ft | 405 kts | 267° |
| 2026-04-25 00:36 | 38.81658 | -99.17511 | 31838 ft | 404 kts | 267° |
| 2026-04-25 00:36 | 38.81108 | -99.24666 | 31838 ft | 402 kts | 267° |
| 2026-04-25 00:37 | 38.80556 | -99.31800 | 31846 ft | 401 kts | 266° |
| 2026-04-25 00:37 | 38.80002 | -99.38909 | 31836 ft | 400 kts | 266° |
| 2026-04-25 00:38 | 38.79447 | -99.45960 | 31833 ft | 399 kts | 266° |
| 2026-04-25 00:38 | 38.78886 | -99.53033 | 31828 ft | 398 kts | 267° |
| 2026-04-25 00:39 | 38.78323 | -99.60088 | 31839 ft | 398 kts | 267° |
| 2026-04-25 00:39 | 38.77756 | -99.67135 | 31840 ft | 397 kts | 267° |
| 2026-04-25 00:40 | 38.77184 | -99.74185 | 31832 ft | 397 kts | 267° |
| 2026-04-25 00:40 | 38.76613 | -99.81176 | 31817 ft | 397 kts | 267° |
| 2026-04-25 00:41 | 38.76033 | -99.88215 | 31822 ft | 396 kts | 267° |
| 2026-04-25 00:41 | 38.75451 | -99.95235 | 31825 ft | 395 kts | 267° |
| 2026-04-25 00:42 | 38.74865 | -100.02241 | 31817 ft | 395 kts | 267° |
| 2026-04-25 00:42 | 38.74277 | -100.09230 | 31813 ft | 394 kts | 267° |
| 2026-04-25 00:43 | 38.73690 | -100.16163 | 31809 ft | 394 kts | 267° |
| 2026-04-25 00:43 | 38.73095 | -100.23131 | 31810 ft | 393 kts | 266° |
| 2026-04-25 00:44 | 38.72496 | -100.30093 | 31798 ft | 392 kts | 266° |
| 2026-04-25 00:44 | 38.71896 | -100.37027 | 31803 ft | 392 kts | 266° |
| 2026-04-25 00:45 | 38.71291 | -100.43959 | 31794 ft | 391 kts | 266° |
| 2026-04-25 00:45 | 38.70684 | -100.50876 | 31794 ft | 391 kts | 266° |
| 2026-04-25 00:46 | 38.70073 | -100.57791 | 31788 ft | 390 kts | 266° |
| 2026-04-25 00:47 | 38.69150 | -100.68150 | 31786 ft | 391 kts | 266° |
| 2026-04-25 00:47 | 38.68532 | -100.75016 | 31781 ft | 391 kts | 266° |
| 2026-04-25 00:48 | 38.67906 | -100.81933 | 31779 ft | 391 kts | 266° |
| 2026-04-25 00:48 | 38.67276 | -100.88850 | 31780 ft | 391 kts | 266° |
| 2026-04-25 00:49 | 38.66641 | -100.95776 | 31809 ft | 392 kts | 266° |
| 2026-04-25 00:49 | 38.66000 | -101.02715 | 31803 ft | 392 kts | 266° |
| 2026-04-25 00:50 | 38.65360 | -101.09605 | 31797 ft | 392 kts | 266° |
| 2026-04-25 00:50 | 38.64711 | -101.16540 | 31792 ft | 392 kts | 266° |
| 2026-04-25 00:51 | 38.64057 | -101.23484 | 31782 ft | 393 kts | 266° |
| 2026-04-25 00:51 | 38.63400 | -101.30424 | 31771 ft | 393 kts | 266° |
| 2026-04-25 00:52 | 38.62742 | -101.37322 | 31760 ft | 392 kts | 265° |
| 2026-04-25 00:52 | 38.62078 | -101.44234 | 31763 ft | 391 kts | 265° |
| 2026-04-25 00:53 | 38.61412 | -101.51130 | 31756 ft | 390 kts | 265° |
| 2026-04-25 00:53 | 38.60743 | -101.58024 | 31757 ft | 390 kts | 265° |
| 2026-04-25 00:54 | 38.60070 | -101.64898 | 31748 ft | 389 kts | 265° |
| 2026-04-25 00:54 | 38.59400 | -101.71710 | 31754 ft | 388 kts | 265° |
| 2026-04-25 00:55 | 38.58723 | -101.78547 | 31742 ft | 387 kts | 265° |
| 2026-04-25 00:55 | 38.58046 | -101.85349 | 31745 ft | 385 kts | 265° |
| 2026-04-25 00:56 | 38.57367 | -101.92125 | 31736 ft | 384 kts | 265° |
| 2026-04-25 00:56 | 38.56687 | -101.98876 | 31738 ft | 383 kts | 265° |
| 2026-04-25 00:57 | 38.56008 | -102.05579 | 31735 ft | 382 kts | 265° |
| 2026-04-25 00:57 | 38.55321 | -102.12317 | 31719 ft | 382 kts | 265° |
| 2026-04-25 00:58 | 38.54631 | -102.19043 | 31721 ft | 382 kts | 265° |
| 2026-04-25 00:58 | 38.53938 | -102.25768 | 31720 ft | 382 kts | 265° |
| 2026-04-25 00:59 | 38.53239 | -102.32501 | 31720 ft | 382 kts | 265° |
| 2026-04-25 00:59 | 38.52536 | -102.39241 | 31717 ft | 383 kts | 265° |
| 2026-04-25 01:00 | 38.51829 | -102.45983 | 31721 ft | 383 kts | 264° |
| 2026-04-25 01:00 | 38.51122 | -102.52690 | 31713 ft | 383 kts | 264° |
| 2026-04-25 01:01 | 38.50405 | -102.59439 | 31711 ft | 383 kts | 264° |
| 2026-04-25 01:01 | 38.49685 | -102.66185 | 31704 ft | 383 kts | 264° |
| 2026-04-25 01:02 | 38.49084 | -102.71788 | 31692 ft | 383 kts | 264° |
| 2026-04-25 01:02 | 38.48358 | -102.78527 | 31683 ft | 383 kts | 264° |
| 2026-04-25 01:03 | 38.47628 | -102.85263 | 31687 ft | 383 kts | 264° |
| 2026-04-25 01:03 | 38.46893 | -102.92007 | 31691 ft | 384 kts | 264° |
| 2026-04-25 01:04 | 38.46154 | -102.98757 | 31693 ft | 384 kts | 264° |
| 2026-04-25 01:04 | 38.45408 | -103.05522 | 31694 ft | 385 kts | 264° |
| 2026-04-25 01:05 | 38.44658 | -103.12298 | 31685 ft | 386 kts | 264° |
| 2026-04-25 01:05 | 38.43903 | -103.19081 | 31682 ft | 386 kts | 263° |
| 2026-04-25 01:06 | 38.43142 | -103.25871 | 31681 ft | 387 kts | 263° |
| 2026-04-25 01:06 | 38.42381 | -103.32631 | 31681 ft | 388 kts | 263° |
| 2026-04-25 01:07 | 38.41611 | -103.39444 | 31673 ft | 388 kts | 263° |
| 2026-04-25 01:07 | 38.40834 | -103.46273 | 31670 ft | 389 kts | 263° |
| 2026-04-25 01:08 | 38.40053 | -103.53099 | 31661 ft | 389 kts | 263° |
| 2026-04-25 01:08 | 38.39274 | -103.59878 | 31677 ft | 389 kts | 263° |
| 2026-04-25 01:09 | 38.38482 | -103.66727 | 31666 ft | 390 kts | 263° |
| 2026-04-25 01:09 | 38.37687 | -103.73572 | 31666 ft | 391 kts | 263° |
| 2026-04-25 01:10 | 38.36886 | -103.80428 | 31660 ft | 391 kts | 263° |
| 2026-04-25 01:10 | 38.36081 | -103.87283 | 31638 ft | 391 kts | 262° |
| 2026-04-25 01:11 | 38.35271 | -103.94145 | 31661 ft | 392 kts | 262° |
| 2026-04-25 01:11 | 38.34457 | -104.01013 | 31658 ft | 393 kts | 262° |
| 2026-04-25 01:12 | 38.33635 | -104.07905 | 31662 ft | 394 kts | 262° |
| 2026-04-25 01:12 | 38.32812 | -104.14781 | 31676 ft | 395 kts | 262° |
| 2026-04-25 01:13 | 38.31977 | -104.21707 | 31685 ft | 396 kts | 262° |
| 2026-04-25 01:13 | 38.31139 | -104.28639 | 31704 ft | 396 kts | 262° |
| 2026-04-25 01:14 | 38.30295 | -104.35581 | 31724 ft | 396 kts | 262° |
| 2026-04-25 01:14 | 38.29445 | -104.42532 | 31728 ft | 396 kts | 262° |
| 2026-04-25 01:15 | 38.28478 | -104.49398 | 31727 ft | 396 kts | 260° |
| 2026-04-25 01:15 | 38.27402 | -104.56278 | 31729 ft | 396 kts | 260° |
| 2026-04-25 01:16 | 38.26329 | -104.63149 | 31725 ft | 395 kts | 260° |
| 2026-04-25 01:16 | 38.25268 | -104.70005 | 31721 ft | 395 kts | 260° |
| 2026-04-25 01:17 | 38.24211 | -104.76852 | 31716 ft | 394 kts | 260° |
| 2026-04-25 01:17 | 38.23152 | -104.83701 | 31706 ft | 394 kts | 260° |
| 2026-04-25 01:18 | 38.22097 | -104.90498 | 31700 ft | 394 kts | 260° |
| 2026-04-25 01:18 | 38.21033 | -104.97328 | 31725 ft | 394 kts | 260° |
| 2026-04-25 01:19 | 38.19964 | -105.04162 | 31725 ft | 394 kts | 260° |
| 2026-04-25 01:19 | 38.18889 | -105.11005 | 31767 ft | 394 kts | 260° |
| 2026-04-25 01:20 | 38.17811 | -105.17843 | 31753 ft | 394 kts | 260° |
| 2026-04-25 01:20 | 38.16733 | -105.24646 | 31798 ft | 395 kts | 260° |
| 2026-04-25 01:21 | 38.15647 | -105.31483 | 31807 ft | 395 kts | 260° |
| 2026-04-25 01:21 | 38.14552 | -105.38345 | 31813 ft | 397 kts | 260° |
| 2026-04-25 01:22 | 38.13451 | -105.45219 | 31813 ft | 397 kts | 260° |
| 2026-04-25 01:22 | 38.12345 | -105.52089 | 31814 ft | 396 kts | 260° |
| 2026-04-25 01:23 | 38.11239 | -105.58939 | 31814 ft | 396 kts | 260° |
| 2026-04-25 01:23 | 38.10132 | -105.65770 | 31803 ft | 395 kts | 259° |
| 2026-04-25 01:24 | 38.09021 | -105.72595 | 31818 ft | 395 kts | 259° |
| 2026-04-25 01:24 | 38.07911 | -105.79392 | 31806 ft | 395 kts | 259° |
| 2026-04-25 01:25 | 38.06791 | -105.86223 | 31805 ft | 395 kts | 259° |
| 2026-04-25 01:25 | 38.05669 | -105.93039 | 31802 ft | 393 kts | 259° |
| 2026-04-25 01:26 | 38.04546 | -105.99831 | 31799 ft | 392 kts | 259° |
| 2026-04-25 01:26 | 38.03430 | -106.06561 | 31805 ft | 392 kts | 259° |
| 2026-04-25 01:27 | 38.02303 | -106.13331 | 31818 ft | 392 kts | 259° |
| 2026-04-25 01:27 | 38.01169 | -106.20115 | 31820 ft | 393 kts | 259° |
| 2026-04-25 01:28 | 37.99459 | -106.30298 | 31838 ft | 394 kts | 259° |
| 2026-04-25 01:28 | 37.98312 | -106.37100 | 31882 ft | 395 kts | 259° |
| 2026-04-25 01:29 | 37.97158 | -106.43919 | 31866 ft | 396 kts | 259° |
| 2026-04-25 01:29 | 37.95999 | -106.50733 | 31908 ft | 395 kts | 259° |
| 2026-04-25 01:30 | 37.94839 | -106.57539 | 31899 ft | 395 kts | 259° |
| 2026-04-25 01:30 | 37.93683 | -106.64293 | 31900 ft | 395 kts | 259° |
| 2026-04-25 01:31 | 37.92514 | -106.71095 | 31912 ft | 395 kts | 259° |
| 2026-04-25 01:31 | 37.91341 | -106.77895 | 31913 ft | 395 kts | 259° |
| 2026-04-25 01:32 | 37.90167 | -106.84678 | 31914 ft | 394 kts | 259° |
| 2026-04-25 01:32 | 37.88992 | -106.91442 | 31939 ft | 393 kts | 259° |
| 2026-04-25 01:33 | 37.87816 | -106.98185 | 31919 ft | 392 kts | 259° |
| 2026-04-25 01:33 | 37.86641 | -107.04900 | 31930 ft | 390 kts | 259° |
| 2026-04-25 01:34 | 37.85475 | -107.11536 | 31935 ft | 389 kts | 259° |
| 2026-04-25 01:34 | 37.84298 | -107.18218 | 31940 ft | 389 kts | 259° |
| 2026-04-25 01:35 | 37.83120 | -107.24877 | 31962 ft | 388 kts | 259° |
| 2026-04-25 01:35 | 37.81937 | -107.31548 | 31956 ft | 388 kts | 259° |
| 2026-04-25 01:36 | 37.80750 | -107.38216 | 31960 ft | 389 kts | 259° |
| 2026-04-25 01:36 | 37.79563 | -107.44859 | 31968 ft | 390 kts | 258° |
| 2026-04-25 01:37 | 37.78361 | -107.51565 | 31938 ft | 391 kts | 258° |
| 2026-04-25 01:37 | 37.77153 | -107.58276 | 31948 ft | 392 kts | 258° |
| 2026-04-25 01:38 | 37.75941 | -107.64993 | 31929 ft | 393 kts | 258° |
| 2026-04-25 01:38 | 37.74719 | -107.71736 | 31932 ft | 393 kts | 258° |
| 2026-04-25 01:39 | 37.73497 | -107.78452 | 31927 ft | 392 kts | 258° |
| 2026-04-25 01:39 | 37.72275 | -107.85154 | 31982 ft | 391 kts | 258° |
| 2026-04-25 01:40 | 37.71056 | -107.91812 | 31943 ft | 391 kts | 258° |
| 2026-04-25 01:40 | 37.69832 | -107.98475 | 31949 ft | 389 kts | 258° |
| 2026-04-25 01:41 | 37.68605 | -108.05132 | 31910 ft | 389 kts | 259° |
| 2026-04-25 01:41 | 37.67378 | -108.11767 | 31919 ft | 388 kts | 258° |
| 2026-04-25 01:42 | 37.66149 | -108.18389 | 31865 ft | 388 kts | 258° |
| 2026-04-25 01:42 | 37.64915 | -108.25016 | 31879 ft | 388 kts | 258° |
| 2026-04-25 01:43 | 37.63675 | -108.31660 | 31868 ft | 389 kts | 258° |
| 2026-04-25 01:43 | 37.62440 | -108.38248 | 31887 ft | 388 kts | 258° |
| 2026-04-25 01:44 | 37.61193 | -108.44879 | 31853 ft | 388 kts | 258° |
| 2026-04-25 01:44 | 37.59940 | -108.51512 | 31856 ft | 389 kts | 258° |
| 2026-04-25 01:45 | 37.58684 | -108.58151 | 31847 ft | 389 kts | 258° |
| 2026-04-25 01:45 | 37.57422 | -108.64794 | 31856 ft | 389 kts | 258° |
| 2026-04-25 01:46 | 37.56157 | -108.71435 | 31849 ft | 389 kts | 258° |
| 2026-04-25 01:46 | 37.54897 | -108.78029 | 31820 ft | 389 kts | 258° |
| 2026-04-25 01:47 | 37.53626 | -108.84657 | 31820 ft | 389 kts | 258° |
| 2026-04-25 01:47 | 37.52353 | -108.91272 | 31795 ft | 388 kts | 258° |
| 2026-04-25 01:48 | 37.51078 | -108.97876 | 31813 ft | 388 kts | 258° |
| 2026-04-25 01:48 | 37.49800 | -109.04478 | 31785 ft | 387 kts | 257° |
| 2026-04-25 01:49 | 37.48520 | -109.11067 | 31798 ft | 387 kts | 258° |
| 2026-04-25 01:49 | 37.47454 | -109.16532 | 31816 ft | 386 kts | 257° |
| 2026-04-25 01:50 | 37.46174 | -109.23088 | 31826 ft | 385 kts | 257° |
| 2026-04-25 01:50 | 37.44893 | -109.29625 | 31838 ft | 384 kts | 257° |
| 2026-04-25 01:51 | 37.43609 | -109.36153 | 31850 ft | 384 kts | 257° |
| 2026-04-25 01:51 | 37.42322 | -109.42677 | 31845 ft | 384 kts | 257° |
| 2026-04-25 01:52 | 37.41039 | -109.49161 | 31836 ft | 383 kts | 257° |
| 2026-04-25 01:52 | 37.39748 | -109.55665 | 31825 ft | 383 kts | 257° |
| 2026-04-25 01:53 | 37.38457 | -109.62148 | 31815 ft | 382 kts | 257° |
| 2026-04-25 01:53 | 37.37163 | -109.68628 | 31789 ft | 382 kts | 257° |
| 2026-04-25 01:54 | 37.35868 | -109.75091 | 31750 ft | 381 kts | 257° |
| 2026-04-25 01:54 | 37.34571 | -109.81542 | 31745 ft | 380 kts | 257° |
| 2026-04-25 01:55 | 37.33273 | -109.87983 | 31742 ft | 380 kts | 257° |
| 2026-04-25 01:55 | 37.31974 | -109.94407 | 31743 ft | 380 kts | 257° |
| 2026-04-25 01:56 | 37.30668 | -110.00847 | 31741 ft | 380 kts | 257° |
| 2026-04-25 01:56 | 37.29365 | -110.07254 | 31731 ft | 381 kts | 257° |
| 2026-04-25 01:57 | 37.27388 | -110.16931 | 31742 ft | 381 kts | 257° |
| 2026-04-25 01:58 | 37.26066 | -110.23384 | 31725 ft | 381 kts | 257° |
| 2026-04-25 01:58 | 37.24743 | -110.29827 | 31724 ft | 381 kts | 257° |
| 2026-04-25 01:59 | 37.23424 | -110.36222 | 31729 ft | 380 kts | 257° |
| 2026-04-25 01:59 | 37.22096 | -110.42645 | 31728 ft | 380 kts | 257° |
| 2026-04-25 02:00 | 37.20768 | -110.49051 | 31724 ft | 379 kts | 257° |
| 2026-04-25 02:00 | 37.19437 | -110.55453 | 31730 ft | 379 kts | 257° |
| 2026-04-25 02:01 | 37.18099 | -110.61862 | 31732 ft | 378 kts | 257° |
| 2026-04-25 02:01 | 37.16763 | -110.68248 | 31731 ft | 379 kts | 257° |
| 2026-04-25 02:02 | 37.15423 | -110.74635 | 31724 ft | 378 kts | 257° |
| 2026-04-25 02:02 | 37.14091 | -110.80966 | 31734 ft | 378 kts | 256° |
| 2026-04-25 02:03 | 37.12748 | -110.87330 | 31728 ft | 377 kts | 256° |
| 2026-04-25 02:03 | 37.11406 | -110.93672 | 31722 ft | 376 kts | 256° |
| 2026-04-25 02:04 | 37.10063 | -110.99996 | 31719 ft | 376 kts | 256° |
| 2026-04-25 02:04 | 37.08719 | -111.06311 | 31719 ft | 375 kts | 256° |
| 2026-04-25 02:05 | 37.07373 | -111.12624 | 31734 ft | 376 kts | 256° |
| 2026-04-25 02:05 | 37.06014 | -111.18970 | 31749 ft | 379 kts | 256° |
| 2026-04-25 02:06 | 37.04651 | -111.25318 | 31777 ft | 379 kts | 256° |
| 2026-04-25 02:06 | 37.03277 | -111.31697 | 31796 ft | 379 kts | 256° |
| 2026-04-25 02:07 | 37.01906 | -111.38052 | 31820 ft | 378 kts | 256° |
| 2026-04-25 02:07 | 37.00532 | -111.44398 | 31820 ft | 378 kts | 256° |
| 2026-04-25 02:08 | 36.99158 | -111.50730 | 31816 ft | 377 kts | 256° |
| 2026-04-25 02:08 | 36.97783 | -111.57051 | 31752 ft | 376 kts | 256° |
| 2026-04-25 02:09 | 36.96292 | -111.63272 | 31752 ft | 376 kts | 252° |
| 2026-04-25 02:09 | 36.94457 | -111.69402 | 31761 ft | 377 kts | 252° |
| 2026-04-25 02:10 | 36.92603 | -111.75547 | 31757 ft | 378 kts | 251° |
| 2026-04-25 02:10 | 36.90751 | -111.81695 | 31762 ft | 377 kts | 252° |
| 2026-04-25 02:11 | 36.88907 | -111.87836 | 31775 ft | 377 kts | 252° |
| 2026-04-25 02:11 | 36.87064 | -111.93971 | 31813 ft | 377 kts | 252° |
| 2026-04-25 02:12 | 36.85219 | -112.00100 | 31816 ft | 377 kts | 252° |
| 2026-04-25 02:12 | 36.83378 | -112.06201 | 31816 ft | 378 kts | 251° |
| 2026-04-25 02:13 | 36.81521 | -112.12342 | 31848 ft | 378 kts | 251° |
| 2026-04-25 02:13 | 36.79662 | -112.18476 | 31855 ft | 378 kts | 252° |
| 2026-04-25 02:14 | 36.77796 | -112.24618 | 31868 ft | 378 kts | 252° |
| 2026-04-25 02:14 | 36.75929 | -112.30757 | 31874 ft | 379 kts | 251° |
| 2026-04-25 02:15 | 36.74066 | -112.36861 | 31866 ft | 379 kts | 251° |
| 2026-04-25 02:15 | 36.72180 | -112.42999 | 31860 ft | 379 kts | 251° |
| 2026-04-25 02:16 | 36.70292 | -112.49124 | 31854 ft | 379 kts | 251° |
| 2026-04-25 02:16 | 36.68404 | -112.55242 | 31823 ft | 377 kts | 251° |
| 2026-04-25 02:17 | 36.66521 | -112.61330 | 31820 ft | 376 kts | 251° |
| 2026-04-25 02:17 | 36.64643 | -112.67393 | 31837 ft | 374 kts | 251° |
| 2026-04-25 02:18 | 36.62770 | -112.73428 | 31814 ft | 373 kts | 251° |
| 2026-04-25 02:18 | 36.60913 | -112.79397 | 31803 ft | 371 kts | 251° |
| 2026-04-25 02:19 | 36.59048 | -112.85380 | 31810 ft | 371 kts | 251° |
| 2026-04-25 02:19 | 36.57178 | -112.91366 | 31819 ft | 371 kts | 251° |
| 2026-04-25 02:20 | 36.55300 | -112.97366 | 31809 ft | 372 kts | 251° |
| 2026-04-25 02:20 | 36.53418 | -113.03369 | 31814 ft | 373 kts | 251° |
| 2026-04-25 02:21 | 36.51527 | -113.09384 | 31810 ft | 374 kts | 251° |
| 2026-04-25 02:21 | 36.49630 | -113.15406 | 31792 ft | 375 kts | 251° |
| 2026-04-25 02:22 | 36.47723 | -113.21447 | 31801 ft | 376 kts | 251° |
| 2026-04-25 02:22 | 36.45807 | -113.27508 | 31790 ft | 377 kts | 251° |
| 2026-04-25 02:23 | 36.43879 | -113.33593 | 31789 ft | 379 kts | 251° |
| 2026-04-25 02:23 | 36.41956 | -113.39647 | 31779 ft | 379 kts | 251° |
| 2026-04-25 02:24 | 36.39867 | -113.45658 | 31781 ft | 380 kts | 248° |
| 2026-04-25 02:24 | 36.37630 | -113.51592 | 31764 ft | 380 kts | 248° |
| 2026-04-25 02:25 | 36.35387 | -113.57533 | 31768 ft | 379 kts | 248° |
| 2026-04-25 02:25 | 36.33152 | -113.63478 | 31745 ft | 379 kts | 248° |
| 2026-04-25 02:26 | 36.30940 | -113.69372 | 31749 ft | 379 kts | 248° |
| 2026-04-25 02:26 | 36.28714 | -113.75295 | 31705 ft | 379 kts | 248° |
| 2026-04-25 02:27 | 36.26488 | -113.81210 | 31720 ft | 378 kts | 248° |
| 2026-04-25 02:27 | 36.24255 | -113.87131 | 31722 ft | 379 kts | 248° |
| 2026-04-25 02:28 | 36.22019 | -113.93048 | 31702 ft | 379 kts | 248° |
| 2026-04-25 02:28 | 36.19784 | -113.98950 | 31709 ft | 378 kts | 248° |
| 2026-04-25 02:29 | 36.17547 | -114.04848 | 31696 ft | 379 kts | 248° |
| 2026-04-25 02:29 | 36.15317 | -114.10716 | 31697 ft | 379 kts | 248° |
| 2026-04-25 02:30 | 36.13078 | -114.16602 | 31684 ft | 377 kts | 248° |
| 2026-04-25 02:30 | 36.10835 | -114.22488 | 31671 ft | 377 kts | 248° |
| 2026-04-25 02:31 | 36.08438 | -114.28250 | 31675 ft | 379 kts | 242° |
| 2026-04-25 02:31 | 36.05111 | -114.33374 | 31682 ft | 384 kts | 234° |
| 2026-04-25 02:32 | 36.01540 | -114.38278 | 31677 ft | 383 kts | 234° |
| 2026-04-25 02:32 | 35.97980 | -114.43188 | 31676 ft | 383 kts | 234° |
| 2026-04-25 02:33 | 35.94458 | -114.48055 | 31691 ft | 383 kts | 234° |
| 2026-04-25 02:33 | 35.90909 | -114.52959 | 31699 ft | 382 kts | 234° |
| 2026-04-25 02:34 | 35.87368 | -114.57845 | 31709 ft | 382 kts | 234° |
| 2026-04-25 02:34 | 35.83828 | -114.62722 | 31687 ft | 382 kts | 234° |
| 2026-04-25 02:35 | 35.80278 | -114.67606 | 31745 ft | 382 kts | 234° |
| 2026-04-25 02:35 | 35.76727 | -114.72484 | 31739 ft | 382 kts | 234° |
| 2026-04-25 02:36 | 35.73180 | -114.77350 | 31771 ft | 382 kts | 234° |
| 2026-04-25 02:36 | 35.69628 | -114.82218 | 31777 ft | 382 kts | 234° |
| 2026-04-25 02:37 | 35.66676 | -114.86256 | 31789 ft | 382 kts | 234° |
| 2026-04-25 02:37 | 35.62546 | -114.91918 | 31779 ft | 383 kts | 234° |
| 2026-04-25 02:38 | 35.59572 | -114.95997 | 31778 ft | 383 kts | 234° |
| 2026-04-25 02:38 | 35.56007 | -115.00879 | 31773 ft | 383 kts | 234° |
| 2026-04-25 02:39 | 35.52465 | -115.05724 | 31786 ft | 384 kts | 234° |
| 2026-04-25 02:39 | 35.48866 | -115.10578 | 31798 ft | 385 kts | 233° |
| 2026-04-25 02:40 | 35.45179 | -115.15376 | 31768 ft | 387 kts | 232° |
| 2026-04-25 02:40 | 35.41475 | -115.20182 | 31792 ft | 388 kts | 232° |
| 2026-04-25 02:41 | 35.37765 | -115.25005 | 31805 ft | 389 kts | 232° |
| 2026-04-25 02:41 | 35.34048 | -115.29840 | 31806 ft | 391 kts | 232° |
| 2026-04-25 02:42 | 35.30337 | -115.34661 | 31790 ft | 391 kts | 232° |
| 2026-04-25 02:42 | 35.26602 | -115.39508 | 31809 ft | 391 kts | 233° |
| 2026-04-25 02:43 | 35.22868 | -115.44348 | 31810 ft | 391 kts | 232° |
| 2026-04-25 02:43 | 35.19130 | -115.49179 | 31801 ft | 390 kts | 232° |
| 2026-04-25 02:44 | 35.15400 | -115.53998 | 31804 ft | 389 kts | 232° |
| 2026-04-25 02:44 | 35.11691 | -115.58780 | 31783 ft | 386 kts | 232° |
| 2026-04-25 02:45 | 35.07995 | -115.63509 | 31798 ft | 384 kts | 232° |
| 2026-04-25 02:45 | 35.04311 | -115.68212 | 31789 ft | 382 kts | 232° |
| 2026-04-25 02:46 | 35.00671 | -115.72858 | 31794 ft | 380 kts | 232° |
| 2026-04-25 02:46 | 34.97014 | -115.77520 | 31787 ft | 380 kts | 232° |
| 2026-04-25 02:47 | 34.93357 | -115.82178 | 31773 ft | 380 kts | 232° |
| 2026-04-25 02:47 | 34.89700 | -115.86828 | 31776 ft | 380 kts | 232° |
| 2026-04-25 02:48 | 34.86030 | -115.91489 | 31765 ft | 381 kts | 232° |
| 2026-04-25 02:48 | 34.82364 | -115.96139 | 31777 ft | 381 kts | 232° |
| 2026-04-25 02:49 | 34.78689 | -116.00795 | 31760 ft | 381 kts | 232° |
| 2026-04-25 02:49 | 34.75016 | -116.05454 | 31764 ft | 382 kts | 232° |
| 2026-04-25 02:50 | 34.71341 | -116.10138 | 31761 ft | 384 kts | 232° |
| 2026-04-25 02:50 | 34.67652 | -116.14837 | 31770 ft | 385 kts | 232° |
| 2026-04-25 02:51 | 34.63949 | -116.19542 | 31749 ft | 386 kts | 232° |
| 2026-04-25 02:51 | 34.60240 | -116.24248 | 31768 ft | 386 kts | 232° |
| 2026-04-25 02:52 | 34.56542 | -116.28934 | 31763 ft | 387 kts | 232° |
| 2026-04-25 02:52 | 34.52819 | -116.33648 | 31744 ft | 388 kts | 232° |
| 2026-04-25 02:52 | 34.50935 | -116.36032 | 31273 ft | 391 kts | 232° |
| 2026-04-25 02:53 | 34.49062 | -116.38397 | 30790 ft | 386 kts | 232° |
| 2026-04-25 02:53 | 34.47209 | -116.40734 | 30298 ft | 382 kts | 232° |
| 2026-04-25 02:53 | 34.45370 | -116.43055 | 29830 ft | 379 kts | 231° |
| 2026-04-25 02:53 | 34.43549 | -116.45349 | 29301 ft | 376 kts | 231° |
| 2026-04-25 02:54 | 34.41796 | -116.47666 | 28780 ft | 368 kts | 238° |
| 2026-04-25 02:54 | 34.40522 | -116.50312 | 28055 ft | 364 kts | 248° |
| 2026-04-25 02:54 | 34.39445 | -116.53050 | 27421 ft | 364 kts | 247° |
| 2026-04-25 02:54 | 34.38338 | -116.55803 | 26902 ft | 361 kts | 247° |
| 2026-04-25 02:55 | 34.37233 | -116.58514 | 26395 ft | 358 kts | 246° |
| 2026-04-25 02:55 | 34.36126 | -116.61208 | 25941 ft | 356 kts | 246° |
| 2026-04-25 02:55 | 34.35024 | -116.63880 | 25501 ft | 353 kts | 246° |
| 2026-04-25 02:55 | 34.33931 | -116.66523 | 25315 ft | 347 kts | 247° |
| 2026-04-25 02:56 | 34.32850 | -116.69154 | 24837 ft | 355 kts | 247° |
| 2026-04-25 02:56 | 34.31771 | -116.71835 | 24405 ft | 352 kts | 247° |
| 2026-04-25 02:56 | 34.30703 | -116.74495 | 23955 ft | 350 kts | 246° |
| 2026-04-25 02:56 | 34.29639 | -116.77131 | 23520 ft | 349 kts | 247° |
| 2026-04-25 02:57 | 34.28586 | -116.79760 | 23054 ft | 346 kts | 247° |
| 2026-04-25 02:57 | 34.27555 | -116.82332 | 22581 ft | 343 kts | 247° |
| 2026-04-25 02:57 | 34.26514 | -116.84918 | 22152 ft | 339 kts | 247° |
| 2026-04-25 02:57 | 34.25487 | -116.87466 | 21870 ft | 333 kts | 247° |
| 2026-04-25 02:58 | 34.24492 | -116.89926 | 21951 ft | 322 kts | 247° |
| 2026-04-25 02:58 | 34.23492 | -116.92399 | 21991 ft | 335 kts | 247° |
| 2026-04-25 02:58 | 34.22445 | -116.94974 | 22000 ft | 346 kts | 246° |
| 2026-04-25 02:58 | 34.21312 | -116.97553 | 21994 ft | 348 kts | 245° |
| 2026-04-25 02:59 | 34.20147 | -117.00120 | 22012 ft | 347 kts | 244° |
| 2026-04-25 02:59 | 34.19193 | -117.02756 | 21854 ft | 337 kts | 255° |
| 2026-04-25 02:59 | 34.18636 | -117.05489 | 21508 ft | 332 kts | 259° |
| 2026-04-25 02:59 | 34.18103 | -117.08191 | 21012 ft | 331 kts | 257° |
| 2026-04-25 03:00 | 34.17528 | -117.10847 | 20480 ft | 332 kts | 256° |
| 2026-04-25 03:00 | 34.16926 | -117.13540 | 20018 ft | 332 kts | 256° |
| 2026-04-25 03:00 | 34.16300 | -117.16211 | 19518 ft | 331 kts | 254° |
| 2026-04-25 03:00 | 34.15583 | -117.18864 | 19139 ft | 331 kts | 253° |
| 2026-04-25 03:01 | 34.14847 | -117.21480 | 18755 ft | 328 kts | 253° |
| 2026-04-25 03:01 | 34.14112 | -117.24092 | 18367 ft | 327 kts | 253° |
| 2026-04-25 03:01 | 34.13385 | -117.26691 | 17888 ft | 326 kts | 253° |
| 2026-04-25 03:01 | 34.12666 | -117.29285 | 17417 ft | 324 kts | 253° |
| 2026-04-25 03:02 | 34.11954 | -117.31864 | 16970 ft | 322 kts | 253° |
| 2026-04-25 03:02 | 34.11245 | -117.34429 | 16502 ft | 321 kts | 253° |
| 2026-04-25 03:02 | 34.10547 | -117.36955 | 16058 ft | 320 kts | 253° |
| 2026-04-25 03:02 | 34.09886 | -117.39509 | 15627 ft | 318 kts | 255° |
| 2026-04-25 03:03 | 34.09257 | -117.42057 | 15178 ft | 317 kts | 255° |
| 2026-04-25 03:03 | 34.08628 | -117.44602 | 14755 ft | 316 kts | 254° |
| 2026-04-25 03:03 | 34.07996 | -117.47138 | 14343 ft | 315 kts | 254° |
| 2026-04-25 03:03 | 34.07365 | -117.49649 | 14082 ft | 309 kts | 253° |
| 2026-04-25 03:04 | 34.06610 | -117.52082 | 13499 ft | 314 kts | 248° |
| 2026-04-25 03:04 | 34.05725 | -117.54492 | 12969 ft | 315 kts | 247° |
| 2026-04-25 03:04 | 34.04818 | -117.56911 | 12425 ft | 317 kts | 247° |
| 2026-04-25 03:05 | 34.03034 | -117.61767 | 11372 ft | 320 kts | 247° |
| 2026-04-25 03:05 | 34.02142 | -117.64233 | 10866 ft | 321 kts | 247° |
| 2026-04-25 03:05 | 34.01248 | -117.66709 | 10344 ft | 323 kts | 247° |
| 2026-04-25 03:05 | 34.00517 | -117.69260 | 9929 ft | 320 kts | 261° |
| 2026-04-25 03:06 | 34.00283 | -117.71849 | 9962 ft | 304 kts | 264° |
| 2026-04-25 03:06 | 34.00074 | -117.74321 | 9939 ft | 290 kts | 264° |
| 2026-04-25 03:06 | 33.99863 | -117.76685 | 9926 ft | 276 kts | 263° |
| 2026-04-25 03:06 | 33.99650 | -117.78922 | 9572 ft | 268 kts | 263° |
| 2026-04-25 03:07 | 33.99427 | -117.81201 | 8831 ft | 276 kts | 263° |
| 2026-04-25 03:07 | 33.99203 | -117.83500 | 8197 ft | 280 kts | 263° |
| 2026-04-25 03:07 | 33.98977 | -117.85813 | 7777 ft | 276 kts | 263° |
| 2026-04-25 03:07 | 33.98758 | -117.88072 | 7474 ft | 267 kts | 263° |
| 2026-04-25 03:08 | 33.98545 | -117.90263 | 7175 ft | 259 kts | 263° |
| 2026-04-25 03:08 | 33.98337 | -117.92387 | 6900 ft | 252 kts | 262° |
| 2026-04-25 03:08 | 33.98132 | -117.94466 | 6641 ft | 249 kts | 262° |
| 2026-04-25 03:08 | 33.97927 | -117.96540 | 6392 ft | 248 kts | 262° |
| 2026-04-25 03:09 | 33.97721 | -117.98623 | 6131 ft | 253 kts | 262° |
| 2026-04-25 03:09 | 33.97510 | -118.00756 | 5863 ft | 260 kts | 263° |
| 2026-04-25 03:09 | 33.97296 | -118.02923 | 5571 ft | 261 kts | 262° |
| 2026-04-25 03:09 | 33.97080 | -118.05088 | 5297 ft | 259 kts | 262° |
| 2026-04-25 03:10 | 33.96865 | -118.07247 | 4978 ft | 259 kts | 262° |
| 2026-04-25 03:10 | 33.96651 | -118.09401 | 4642 ft | 260 kts | 262° |
| 2026-04-25 03:10 | 33.96438 | -118.11544 | 4296 ft | 263 kts | 262° |
| 2026-04-25 03:10 | 33.96222 | -118.13748 | 3979 ft | 265 kts | 263° |
| 2026-04-25 03:11 | 33.96028 | -118.15954 | 3706 ft | 265 kts | 263° |
| 2026-04-25 03:11 | 33.95813 | -118.18152 | 3402 ft | 262 kts | 262° |
| 2026-04-25 03:11 | 33.95588 | -118.20314 | 3038 ft | 257 kts | 261° |
| 2026-04-25 03:11 | 33.95370 | -118.22401 | 2699 ft | 244 kts | 261° |
| 2026-04-25 03:12 | 33.95167 | -118.24365 | 2384 ft | 229 kts | 261° |
| 2026-04-25 03:12 | 33.94978 | -118.26191 | 2085 ft | 210 kts | 261° |
| 2026-04-25 03:12 | 33.94805 | -118.27864 | 1814 ft | 191 kts | 261° |
| 2026-04-25 03:12 | 33.94650 | -118.29373 | 1589 ft | 170 kts | 260° |
| 2026-04-25 03:13 | 33.94512 | -118.30707 | 1353 ft | 152 kts | 261° |
| 2026-04-25 03:13 | 33.94387 | -118.31925 | 1169 ft | 144 kts | 261° |
| 2026-04-25 03:13 | 33.94263 | -118.33164 | 996 ft | 151 kts | 261° |
| 2026-04-25 03:13 | 33.94125 | -118.34416 | 807 ft | 151 kts | 262° |
| 2026-04-25 03:14 | 33.94002 | -118.35639 | 577 ft | 146 kts | 262° |
| 2026-04-25 03:14 | 33.93878 | -118.36842 | 386 ft | 144 kts | 263° |
| 2026-04-25 03:14 | 33.93768 | -118.38010 | 208 ft | 136 kts | 262° |
| 2026-04-25 03:14 | 33.93652 | -118.39100 | 122 ft | 113 kts | 262° |
| 2026-04-25 03:15 | 33.93584 | -118.39778 | 125 ft | 52 kts | 264° |
| 2026-04-25 03:15 | 33.93566 | -118.40107 | 123 ft | 31 kts | 274° |
| 2026-04-25 03:15 | 33.93613 | -118.40322 | 123 ft | 1 kts | 290° |
| 2026-04-25 03:16 | 33.93615 | -118.40330 | 123 ft | 5 kts | 289° |
| 2026-04-25 03:16 | 33.93625 | -118.40437 | 125 ft | 20 kts | 268° |
| 2026-04-25 03:16 | 33.93606 | -118.40645 | 123 ft | 30 kts | 263° |
| 2026-04-25 03:17 | 33.93599 | -118.40811 | 125 ft | 9 kts | 284° |
| 2026-04-25 03:17 | 33.93610 | -118.40845 | 121 ft | 0 kts | 293° |
| 2026-04-25 03:17 | 33.93623 | -118.40870 | 121 ft | 11 kts | 309° |
| 2026-04-25 03:18 | 33.93712 | -118.40903 | 122 ft | 17 kts | 354° |
| 2026-04-25 03:18 | 33.93751 | -118.40908 | 122 ft | 0 kts | 354° |
| 2026-04-25 03:19 | 33.93804 | -118.40915 | 123 ft | 15 kts | 352° |
| 2026-04-25 03:19 | 33.93867 | -118.40895 | 124 ft | 9 kts | 69° |
| 2026-04-25 03:19 | 33.93880 | -118.40781 | 125 ft | 15 kts | 82° |
| 2026-04-25 03:20 | 33.93892 | -118.40677 | 125 ft | 15 kts | 84° |
| 2026-04-25 03:20 | 33.93906 | -118.40566 | 125 ft | 8 kts | 65° |
| 2026-04-25 03:20 | 33.93970 | -118.40545 | 123 ft | 14 kts | 348° |
| 2026-04-25 03:20 | 33.94018 | -118.40553 | 123 ft | 1 kts | 353° |
| 2026-04-25 03:21 | 33.94046 | -118.40576 | 123 ft | 3 kts | 291° |
| 2026-04-25 03:21 | 33.94045 | -118.40602 | 124 ft | 1 kts | 262° |
| 2026-04-25 03:21 | 33.94044 | -118.40608 | 121 ft | 1 kts | 263° |
| 2026-04-25 03:21 | 33.94043 | -118.40614 | 123 ft | 0 kts | 263° |